Time;durP1;ratioP1;P1;durP2;ratioP2;P2;SDS_P1;SDS_P2;PMS_P1;PMS_P2;Temp;Humidity;BMP_temperature;BMP_pressure;BME280_temperature;BME280_humidity;BME280_pressure;Samples;Min_cycle;Max_cycle;Signal;HPM_P1;HPM_P2
2022/08/16 00:02:34;;;;;;;9.43;8.52;;;;;;;;;;4995542;28;20241;-74
2022/08/16 00:05:03;;;;;;;9.25;8.25;;;;;;;;;;4995576;28;20197;-74
2022/08/16 00:07:31;;;;;;;10.95;8.35;;;;;;;;;;4997113;28;20209;-74
2022/08/16 00:10:00;;;;;;;10.35;9.20;;;;;;;;;;4996543;28;20627;-74
2022/08/16 00:12:29;;;;;;;11.25;9.35;;;;;;;;;;4997057;28;20209;-74
2022/08/16 00:15:00;;;;;;;12.40;9.75;;;;;;;;;;4995979;28;20240;-74
2022/08/16 00:17:29;;;;;;;9.88;8.88;;;;;;;;;;4991101;28;20296;-74
2022/08/16 00:20:20;;;;;;;9.80;8.30;;;;;;;;;;4995596;28;20253;-74
2022/08/16 00:22:51;;;;;;;11.13;9.82;;;;;;;;;;4990256;28;20206;-74
2022/08/16 00:25:22;;;;;;;10.80;9.23;;;;;;;;;;4995494;28;20571;-74
2022/08/16 00:28:11;;;;;;;10.50;9.40;;;;;;;;;;4978000;28;20281;-73
2022/08/16 00:30:39;;;;;;;12.00;10.20;;;;;;;;;;4980896;28;20209;-73
2022/08/16 00:33:09;;;;;;;13.57;10.00;;;;;;;;;;4977772;28;20209;-74
2022/08/16 00:35:40;;;;;;;11.52;10.40;;;;;;;;;;4996192;28;20229;-74
2022/08/16 00:38:10;;;;;;;13.50;10.90;;;;;;;;;;4991936;28;20204;-74
2022/08/16 00:40:59;;;;;;;12.95;10.30;;;;;;;;;;4995854;28;20209;-74
2022/08/16 00:43:29;;;;;;;11.30;10.02;;;;;;;;;;4985341;28;20733;-74
2022/08/16 00:46:12;;;;;;;12.20;10.90;;;;;;;;;;4992793;28;20198;-74
2022/08/16 00:49:01;;;;;;;11.68;10.48;;;;;;;;;;4989967;28;20646;-73
2022/08/16 00:51:31;;;;;;;11.18;10.18;;;;;;;;;;4996336;28;20205;-74
2022/08/16 00:54:00;;;;;;;11.27;10.15;;;;;;;;;;4995586;28;20241;-74
2022/08/16 00:56:30;;;;;;;13.63;11.20;;;;;;;;;;4996296;28;20206;-74
2022/08/16 00:59:21;;;;;;;12.55;11.05;;;;;;;;;;4986030;28;20317;-74
2022/08/16 01:01:51;;;;;;;15.52;11.07;;;;;;;;;;4995296;28;20640;-74
2022/08/16 01:04:21;;;;;;;12.50;11.30;;;;;;;;;;4996243;28;20202;-74
2022/08/16 01:06:59;;;;;;;12.43;11.20;;;;;;;;;;4995315;28;20259;-74
2022/08/16 01:09:29;;;;;;;12.68;11.35;;;;;;;;;;4996070;28;20257;-73
2022/08/16 01:12:01;;;;;;;13.00;11.10;;;;;;;;;;4984631;28;20654;-74
2022/08/16 01:14:32;;;;;;;13.52;12.10;;;;;;;;;;4995790;28;20603;-73
2022/08/16 01:17:02;;;;;;;15.77;12.20;;;;;;;;;;4980851;28;20201;-74
2022/08/16 01:19:36;;;;;;;13.70;12.25;;;;;;;;;;4995957;28;20232;-74
2022/08/16 01:22:14;;;;;;;14.40;12.80;;;;;;;;;;4996054;28;20213;-74
2022/08/16 01:25:07;;;;;;;13.27;11.95;;;;;;;;;;4997552;28;20209;-74
2022/08/16 01:27:37;;;;;;;13.43;11.65;;;;;;;;;;4980784;28;20224;-73
2022/08/16 01:30:08;;;;;;;15.48;12.93;;;;;;;;;;4988402;28;20230;-74
2022/08/16 01:32:49;;;;;;;13.52;12.13;;;;;;;;;;4992181;28;20708;-73
2022/08/16 01:35:33;;;;;;;12.27;11.13;;;;;;;;;;4995051;28;20228;-73
2022/08/16 01:38:16;;;;;;;14.90;12.20;;;;;;;;;;4976792;28;20193;-74
2022/08/16 01:40:48;;;;;;;13.35;12.00;;;;;;;;;;4989354;28;20689;-74
2022/08/16 01:43:17;;;;;;;15.85;12.65;;;;;;;;;;4992903;28;20259;-73
2022/08/16 01:45:46;;;;;;;13.38;11.98;;;;;;;;;;4984333;28;20654;-74
2022/08/16 01:48:26;;;;;;;14.07;12.55;;;;;;;;;;4983543;28;20227;-73
2022/08/16 01:50:55;;;;;;;14.10;12.70;;;;;;;;;;4993558;28;20204;-74
2022/08/16 01:53:43;;;;;;;13.77;12.45;;;;;;;;;;4994877;28;20263;-72
2022/08/16 01:56:23;;;;;;;13.77;12.45;;;;;;;;;;4990291;28;20643;-74
2022/08/16 01:58:54;;;;;;;13.00;11.65;;;;;;;;;;4995132;28;20769;-74
2022/08/16 02:01:24;;;;;;;15.70;12.52;;;;;;;;;;4995183;28;20215;-74
2022/08/16 02:03:56;;;;;;;14.27;12.75;;;;;;;;;;4982477;28;20701;-74
2022/08/16 02:06:26;;;;;;;13.55;12.18;;;;;;;;;;4985914;28;20204;-74
2022/08/16 02:09:02;;;;;;;13.45;12.25;;;;;;;;;;4994854;28;20316;-74
2022/08/16 02:11:35;;;;;;;13.27;11.82;;;;;;;;;;4994438;28;20201;-74
2022/08/16 02:14:19;;;;;;;12.57;11.27;;;;;;;;;;4985254;28;20220;-74
2022/08/16 02:16:49;;;;;;;13.98;12.48;;;;;;;;;;4993660;28;20229;-74
2022/08/16 02:19:20;;;;;;;14.20;11.95;;;;;;;;;;4994755;28;20227;-74
2022/08/16 02:21:50;;;;;;;13.77;12.50;;;;;;;;;;4994525;28;20609;-74
2022/08/16 02:24:39;;;;;;;14.35;12.80;;;;;;;;;;4987287;28;20209;-74
2022/08/16 02:27:11;;;;;;;12.85;11.43;;;;;;;;;;4993940;28;20200;-74
2022/08/16 02:29:40;;;;;;;13.82;12.43;;;;;;;;;;4993787;28;20625;-74
2022/08/16 02:32:09;;;;;;;15.48;12.30;;;;;;;;;;4994316;28;20232;-74
2022/08/16 02:34:58;;;;;;;12.85;11.65;;;;;;;;;;4994013;28;20232;-74
2022/08/16 02:37:27;;;;;;;12.07;10.98;;;;;;;;;;4994394;28;20592;-74
2022/08/16 02:40:17;;;;;;;12.80;10.10;;;;;;;;;;4994999;28;20682;-74
2022/08/16 02:42:47;;;;;;;12.50;11.30;;;;;;;;;;4994877;28;20209;-74
2022/08/16 02:45:18;;;;;;;13.65;11.55;;;;;;;;;;4994167;28;20232;-74
2022/08/16 02:47:46;;;;;;;13.35;11.95;;;;;;;;;;4994743;28;20212;-75
2022/08/16 02:50:29;;;;;;;13.40;12.00;;;;;;;;;;4993978;28;20237;-74
2022/08/16 02:53:18;;;;;;;13.13;11.73;;;;;;;;;;4995029;28;20228;-74
2022/08/16 02:55:51;;;;;;;15.95;13.82;;;;;;;;;;4990568;28;20209;-74
2022/08/16 02:58:22;;;;;;;14.57;12.57;;;;;;;;;;4993138;28;20251;-74
2022/08/16 03:00:52;;;;;;;13.80;12.40;;;;;;;;;;4985610;28;20654;-74
2022/08/16 03:03:24;;;;;;;16.30;14.70;;;;;;;;;;4993784;28;20360;-74
2022/08/16 03:05:54;;;;;;;15.68;14.25;;;;;;;;;;4994141;28;20572;-74
2022/08/16 03:08:23;;;;;;;14.80;13.30;;;;;;;;;;4989382;28;20239;-74
2022/08/16 03:11:12;;;;;;;14.82;13.43;;;;;;;;;;4992556;28;20667;-74
2022/08/16 03:13:52;;;;;;;15.65;14.15;;;;;;;;;;4987069;28;20213;-73
2022/08/16 03:16:24;;;;;;;15.50;13.93;;;;;;;;;;4994215;28;20251;-74
2022/08/16 03:19:09;;;;;;;14.95;13.40;;;;;;;;;;4994414;28;20225;-75
2022/08/16 03:21:38;;;;;;;15.40;13.90;;;;;;;;;;4994847;28;20259;-75
2022/08/16 03:24:07;;;;;;;14.90;13.02;;;;;;;;;;4994930;28;20205;-75
2022/08/16 03:26:58;;;;;;;16.58;14.60;;;;;;;;;;4987950;28;20201;-76
2022/08/16 03:29:32;;;;;;;16.25;14.50;;;;;;;;;;4996109;28;20255;-76
2022/08/16 03:32:01;;;;;;;15.40;13.88;;;;;;;;;;4998407;28;20193;-76
2022/08/16 03:34:32;;;;;;;15.63;14.07;;;;;;;;;;4998381;28;20193;-76
2022/08/16 03:37:00;;;;;;;15.77;14.18;;;;;;;;;;4997569;28;20229;-76
2022/08/16 03:39:29;;;;;;;16.17;14.10;;;;;;;;;;4998115;28;20225;-76
2022/08/16 03:41:58;;;;;;;18.13;15.15;;;;;;;;;;4998646;28;20625;-75
2022/08/16 03:44:28;;;;;;;17.13;15.48;;;;;;;;;;4997997;28;20299;-75
2022/08/16 03:47:15;;;;;;;15.88;14.27;;;;;;;;;;5005190;28;20247;-75
2022/08/16 03:49:47;;;;;;;15.05;13.48;;;;;;;;;;5004325;28;20247;-75
2022/08/16 03:52:19;;;;;;;14.48;13.10;;;;;;;;;;4989920;28;20249;-75
2022/08/16 03:54:51;;;;;;;13.73;12.32;;;;;;;;;;4992711;28;20209;-75
2022/08/16 03:57:26;;;;;;;16.77;15.00;;;;;;;;;;4998206;28;20669;-75
2022/08/16 04:00:11;;;;;;;16.77;14.43;;;;;;;;;;4998360;28;20275;-75
2022/08/16 04:03:05;;;;;;;15.55;13.90;;;;;;;;;;4997256;28;20206;-75
2022/08/16 04:05:35;;;;;;;15.35;13.85;;;;;;;;;;4981407;28;20217;-75
2022/08/16 04:08:05;;;;;;;15.15;13.65;;;;;;;;;;4998398;28;20291;-75
2022/08/16 04:10:51;;;;;;;16.13;13.43;;;;;;;;;;4978775;28;20212;-75
2022/08/16 04:13:20;;;;;;;14.48;13.15;;;;;;;;;;4991981;28;20240;-75
2022/08/16 04:16:08;;;;;;;14.82;13.25;;;;;;;;;;4995137;28;20759;-75
2022/08/16 04:18:56;;;;;;;16.92;14.48;;;;;;;;;;5010435;28;20745;-75
2022/08/16 04:21:31;;;;;;;15.02;13.45;;;;;;;;;;4997533;28;20197;-75
2022/08/16 04:24:00;;;;;;;19.60;14.63;;;;;;;;;;4997357;28;20217;-75
2022/08/16 04:26:30;;;;;;;15.40;13.73;;;;;;;;;;4997485;28;20197;-75
2022/08/16 04:29:00;;;;;;;14.00;12.77;;;;;;;;;;4997060;28;20228;-75
2022/08/16 04:31:52;;;;;;;16.63;14.15;;;;;;;;;;4994093;28;20201;-75
2022/08/16 04:34:31;;;;;;;14.35;13.05;;;;;;;;;;4997459;28;20205;-78
2022/08/16 04:37:01;;;;;;;13.85;12.55;;;;;;;;;;4997300;28;20252;-78
2022/08/16 04:39:33;;;;;;;14.75;13.35;;;;;;;;;;4996895;28;20241;-78
2022/08/16 04:42:14;;;;;;;17.17;13.80;;;;;;;;;;4997626;28;20202;-78
2022/08/16 04:44:43;;;;;;;15.35;13.70;;;;;;;;;;4997526;28;20213;-78
2022/08/16 04:47:23;;;;;;;14.77;13.38;;;;;;;;;;4988181;28;20194;-78
2022/08/16 04:50:07;;;;;;;15.18;12.98;;;;;;;;;;4978151;28;20230;-78
2022/08/16 04:52:52;;;;;;;13.70;11.98;;;;;;;;;;4977061;28;20205;-78
2022/08/16 04:55:24;;;;;;;14.65;11.82;;;;;;;;;;4978518;28;20734;-78
2022/08/16 04:58:06;;;;;;;13.35;11.95;;;;;;;;;;4978161;28;20210;-78
2022/08/16 05:00:54;;;;;;;14.77;12.88;;;;;;;;;;4991590;28;20266;-78
2022/08/16 05:03:24;;;;;;;14.02;12.63;;;;;;;;;;4997688;28;20232;-78
2022/08/16 05:05:53;;;;;;;13.55;12.25;;;;;;;;;;4997333;28;20209;-78
2022/08/16 05:08:33;;;;;;;13.77;12.48;;;;;;;;;;4996976;28;20228;-78
2022/08/16 05:11:03;;;;;;;14.23;12.77;;;;;;;;;;4996757;28;20208;-78
2022/08/16 05:13:36;;;;;;;13.95;12.52;;;;;;;;;;4997314;28;20186;-78
2022/08/16 05:16:10;;;;;;;14.43;12.35;;;;;;;;;;4997123;28;20197;-78
2022/08/16 05:18:47;;;;;;;13.57;12.18;;;;;;;;;;4996890;28;20232;-78
2022/08/16 05:21:16;;;;;;;12.65;11.38;;;;;;;;;;4996257;28;20208;-78
2022/08/16 05:23:50;;;;;;;12.43;11.32;;;;;;;;;;4996353;28;20193;-78
2022/08/16 05:26:29;;;;;;;12.30;11.20;;;;;;;;;;4996575;28;20185;-78
2022/08/16 05:28:57;;;;;;;12.63;10.48;;;;;;;;;;4996669;28;20221;-78
2022/08/16 05:31:26;;;;;;;11.57;10.38;;;;;;;;;;4996421;28;20201;-77
2022/08/16 05:33:58;;;;;;;10.05;9.15;;;;;;;;;;4996550;28;20189;-78
2022/08/16 05:36:27;;;;;;;11.68;9.30;;;;;;;;;;4996331;28;20236;-78
2022/08/16 05:39:04;;;;;;;10.32;9.43;;;;;;;;;;4996263;28;20289;-78
2022/08/16 05:41:33;;;;;;;10.20;9.25;;;;;;;;;;4996982;28;20205;-78
2022/08/16 05:44:13;;;;;;;10.25;9.25;;;;;;;;;;4996758;28;20217;-78
2022/08/16 05:46:51;;;;;;;9.63;8.68;;;;;;;;;;4995768;28;20185;-78
2022/08/16 05:49:19;;;;;;;10.07;8.60;;;;;;;;;;4995649;28;20236;-79
2022/08/16 05:51:50;;;;;;;9.82;8.60;;;;;;;;;;4995642;28;20248;-78
2022/08/16 05:54:20;;;;;;;8.50;7.70;;;;;;;;;;4995876;28;20596;-78
2022/08/16 05:56:52;;;;;;;8.38;7.68;;;;;;;;;;4996250;28;20217;-78
2022/08/16 05:59:20;;;;;;;8.32;7.47;;;;;;;;;;4995515;28;20233;-77
2022/08/16 06:01:50;;;;;;;7.88;7.15;;;;;;;;;;4996364;28;20202;-78
2022/08/16 06:04:20;;;;;;;10.55;7.00;;;;;;;;;;4995568;28;20217;-78
2022/08/16 06:07:05;;;;;;;7.40;6.60;;;;;;;;;;4996184;28;20680;-78
2022/08/16 06:09:38;;;;;;;7.38;6.63;;;;;;;;;;4995429;28;20229;-78
2022/08/16 06:12:12;;;;;;;7.07;6.38;;;;;;;;;;4995646;28;20204;-78
2022/08/16 06:14:57;;;;;;;6.45;5.85;;;;;;;;;;4995114;28;20208;-78
2022/08/16 06:17:26;;;;;;;7.43;6.20;;;;;;;;;;4994884;28;20213;-78
2022/08/16 06:20:13;;;;;;;6.72;5.97;;;;;;;;;;4995356;28;20225;-79
2022/08/16 06:22:44;;;;;;;5.88;5.38;;;;;;;;;;4995037;28;20193;-78
2022/08/16 06:25:16;;;;;;;6.10;5.50;;;;;;;;;;4995171;28;20205;-78
2022/08/16 06:28:04;;;;;;;6.13;5.53;;;;;;;;;;4994914;28;20182;-78
2022/08/16 06:30:37;;;;;;;6.72;5.25;;;;;;;;;;4976325;28;20590;-78
2022/08/16 06:33:13;;;;;;;6.80;5.20;;;;;;;;;;4975987;28;20193;-79
2022/08/16 06:35:50;;;;;;;5.20;4.80;;;;;;;;;;4975985;28;20209;-78
2022/08/16 06:38:26;;;;;;;9.05;5.50;;;;;;;;;;4975665;28;20280;-78
2022/08/16 06:41:03;;;;;;;6.35;5.75;;;;;;;;;;4975220;28;20192;-78
2022/08/16 06:43:33;;;;;;;6.60;5.70;;;;;;;;;;4992807;28;20244;-77
2022/08/16 06:46:03;;;;;;;5.60;5.10;;;;;;;;;;4994906;28;20267;-78
2022/08/16 06:48:32;;;;;;;7.55;5.55;;;;;;;;;;4994688;28;20221;-78
2022/08/16 06:51:01;;;;;;;6.03;5.20;;;;;;;;;;4994807;28;20219;-78
2022/08/16 06:53:32;;;;;;;5.88;5.30;;;;;;;;;;4994671;28;20211;-79
2022/08/16 06:56:05;;;;;;;6.32;5.15;;;;;;;;;;4994744;28;20213;-78
2022/08/16 06:58:50;;;;;;;5.72;5.10;;;;;;;;;;4994010;28;20287;-78
2022/08/16 07:01:18;;;;;;;9.38;5.82;;;;;;;;;;4994455;28;20577;-78
2022/08/16 07:04:07;;;;;;;5.50;5.00;;;;;;;;;;4994250;28;20235;-79
2022/08/16 07:06:39;;;;;;;8.85;6.15;;;;;;;;;;4994092;28;20244;-78
2022/08/16 07:09:10;;;;;;;6.40;5.80;;;;;;;;;;4994114;28;20225;-78
2022/08/16 07:11:40;;;;;;;7.63;5.43;;;;;;;;;;4994322;28;20243;-78
2022/08/16 07:14:15;;;;;;;5.93;5.32;;;;;;;;;;4994637;28;20216;-78
2022/08/16 07:16:52;;;;;;;7.20;5.72;;;;;;;;;;4994710;28;20657;-78
2022/08/16 07:19:22;;;;;;;5.93;5.32;;;;;;;;;;4994164;28;20229;-79
2022/08/16 07:22:10;;;;;;;6.38;5.78;;;;;;;;;;4994014;28;20209;-78
2022/08/16 07:24:59;;;;;;;5.80;5.28;;;;;;;;;;4994034;28;20209;-79
2022/08/16 07:27:29;;;;;;;5.93;5.43;;;;;;;;;;4993864;28;20213;-78
2022/08/16 07:30:01;;;;;;;5.70;5.20;;;;;;;;;;4994105;28;20685;-78
2022/08/16 07:32:31;;;;;;;6.43;5.82;;;;;;;;;;4994244;28;20647;-78
2022/08/16 07:35:02;;;;;;;6.10;4.90;;;;;;;;;;4994055;28;20208;-78
2022/08/16 07:37:30;;;;;;;5.90;5.30;;;;;;;;;;4993565;28;20205;-79
2022/08/16 07:39:59;;;;;;;5.82;4.95;;;;;;;;;;4993686;28;20235;-79
2022/08/16 07:42:29;;;;;;;7.32;5.15;;;;;;;;;;4994233;28;20651;-80
2022/08/16 07:45:02;;;;;;;5.72;5.15;;;;;;;;;;4994563;28;20198;-79
2022/08/16 07:47:37;;;;;;;6.57;5.15;;;;;;;;;;4993673;28;20284;-79
2022/08/16 07:50:09;;;;;;;7.15;4.97;;;;;;;;;;4993577;28;20225;-79
2022/08/16 07:52:58;;;;;;;5.38;4.82;;;;;;;;;;4993946;28;20217;-78
2022/08/16 07:55:29;;;;;;;5.95;5.38;;;;;;;;;;4994184;28;20201;-79
2022/08/16 07:58:17;;;;;;;5.75;5.05;;;;;;;;;;4993812;28;20733;-79
2022/08/16 08:01:04;;;;;;;5.00;4.50;;;;;;;;;;4993502;28;20233;-79
2022/08/16 08:03:38;;;;;;;7.45;5.32;;;;;;;;;;4993671;28;20267;-79
2022/08/16 08:06:12;;;;;;;7.10;5.55;;;;;;;;;;4993744;28;20248;-78
2022/08/16 08:08:43;;;;;;;5.78;4.95;;;;;;;;;;4993717;28;20260;-79
2022/08/16 08:11:19;;;;;;;5.65;5.00;;;;;;;;;;4993754;28;20225;-79
2022/08/16 08:13:50;;;;;;;6.10;5.38;;;;;;;;;;4993160;28;20244;-78
2022/08/16 08:16:21;;;;;;;5.35;4.80;;;;;;;;;;4997726;28;20212;-79
2022/08/16 08:18:58;;;;;;;7.35;5.13;;;;;;;;;;4997175;28;20232;-79
2022/08/16 08:21:30;;;;;;;5.57;4.95;;;;;;;;;;4997176;28;20298;-79
2022/08/16 08:24:18;;;;;;;5.40;4.63;;;;;;;;;;4997127;28;20205;-78
2022/08/16 08:26:46;;;;;;;6.03;4.63;;;;;;;;;;4997605;28;20271;-79
2022/08/16 08:29:19;;;;;;;5.40;4.90;;;;;;;;;;4996973;28;20574;-79
2022/08/16 08:32:04;;;;;;;5.13;4.63;;;;;;;;;;4996620;28;20224;-79
2022/08/16 08:34:52;;;;;;;5.90;5.30;;;;;;;;;;4996759;28;20337;-78
2022/08/16 08:37:21;;;;;;;6.72;5.20;;;;;;;;;;4996630;28;20208;-78
2022/08/16 08:39:51;;;;;;;6.07;5.47;;;;;;;;;;4996966;28;20695;-79
2022/08/16 08:42:22;;;;;;;5.00;4.50;;;;;;;;;;4996872;28;20205;-79
2022/08/16 08:44:56;;;;;;;5.40;4.90;;;;;;;;;;4996819;28;20225;-79
2022/08/16 08:47:25;;;;;;;4.95;4.55;;;;;;;;;;4996882;28;20197;-79
2022/08/16 08:49:55;;;;;;;4.93;4.43;;;;;;;;;;4996638;28;20224;-79
2022/08/16 08:52:25;;;;;;;4.90;4.50;;;;;;;;;;4996699;28;20209;-79
2022/08/16 08:55:03;;;;;;;5.05;4.55;;;;;;;;;;4996367;28;20553;-80
2022/08/16 08:57:38;;;;;;;4.90;4.40;;;;;;;;;;4996407;28;20196;-79
2022/08/16 09:00:10;;;;;;;4.85;4.43;;;;;;;;;;4996505;28;20308;-79
2022/08/16 09:02:41;;;;;;;4.47;4.07;;;;;;;;;;4997533;28;20189;-79
2022/08/16 09:05:12;;;;;;;4.90;4.50;;;;;;;;;;4996501;28;20209;-79
2022/08/16 09:07:44;;;;;;;5.22;4.72;;;;;;;;;;4996208;28;20200;-79
2022/08/16 09:10:29;;;;;;;4.95;4.45;;;;;;;;;;4996337;28;20232;-79
2022/08/16 09:12:58;;;;;;;5.60;4.28;;;;;;;;;;4981100;28;20232;-79
2022/08/16 09:15:27;;;;;;;4.53;4.07;;;;;;;;;;4976762;28;20214;-80
2022/08/16 09:18:00;;;;;;;4.95;4.20;;;;;;;;;;4976329;28;20229;-78
2022/08/16 09:20:51;;;;;;;5.82;4.72;;;;;;;;;;4976785;28;20206;-79
2022/08/16 09:23:27;;;;;;;4.85;4.28;;;;;;;;;;4976311;28;20221;-79
2022/08/16 09:25:55;;;;;;;5.53;4.50;;;;;;;;;;4976131;28;20280;-80
2022/08/16 09:28:24;;;;;;;4.65;4.25;;;;;;;;;;4975892;28;20239;-79
2022/08/16 09:31:14;;;;;;;5.35;4.28;;;;;;;;;;4976244;28;20205;-79
2022/08/16 09:33:43;;;;;;;5.50;4.60;;;;;;;;;;4976170;28;20273;-79
2022/08/16 09:36:12;;;;;;;4.72;4.32;;;;;;;;;;4976057;28;20261;-78
2022/08/16 09:39:02;;;;;;;7.78;4.90;;;;;;;;;;4976627;28;20232;-79
2022/08/16 09:41:31;;;;;;;7.13;4.68;;;;;;;;;;4976390;28;20695;-79
2022/08/16 09:44:02;;;;;;;4.72;4.32;;;;;;;;;;4976259;28;20202;-79
2022/08/16 09:46:52;;;;;;;4.38;3.97;;;;;;;;;;4975890;28;20257;-79
2022/08/16 09:49:26;;;;;;;5.18;4.78;;;;;;;;;;4976108;28;20232;-80
2022/08/16 09:52:04;;;;;;;7.47;4.93;;;;;;;;;;4976415;28;20190;-80
2022/08/16 09:54:36;;;;;;;4.90;4.35;;;;;;;;;;4976037;28;20277;-80
2022/08/16 09:57:05;;;;;;;4.72;4.22;;;;;;;;;;4976083;28;20655;-80
2022/08/16 09:59:39;;;;;;;6.22;4.80;;;;;;;;;;4984333;28;20229;-74
2022/08/16 10:02:11;;;;;;;5.15;4.68;;;;;;;;;;4995623;28;20303;-74
2022/08/16 10:04:55;;;;;;;5.63;5.10;;;;;;;;;;4993856;28;20637;-74
2022/08/16 10:07:24;;;;;;;5.35;4.85;;;;;;;;;;4994561;28;20209;-74
2022/08/16 10:09:53;;;;;;;6.00;4.70;;;;;;;;;;4994295;28;20705;-74
2022/08/16 10:15:11;;;;;;;5.53;4.75;;;;;;;;;;4994337;28;20216;-74
2022/08/16 10:17:45;;;;;;;5.38;4.82;;;;;;;;;;4975555;28;20346;-74
2022/08/16 10:20:30;;;;;;;5.03;4.53;;;;;;;;;;4993834;28;20229;-75
2022/08/16 10:22:58;;;;;;;4.45;4.05;;;;;;;;;;4991947;28;20209;-74
2022/08/16 10:25:34;;;;;;;5.70;4.43;;;;;;;;;;4994358;28;20228;-74
2022/08/16 10:28:23;;;;;;;5.38;4.43;;;;;;;;;;4994370;28;20256;-74
2022/08/16 10:30:58;;;;;;;5.78;4.30;;;;;;;;;;4994365;28;20287;-74
2022/08/16 10:33:28;;;;;;;5.88;4.20;;;;;;;;;;4994256;28;20308;-75
2022/08/16 10:36:01;;;;;;;5.10;3.72;;;;;;;;;;4993979;28;20558;-74
2022/08/16 10:38:32;;;;;;;4.38;3.95;;;;;;;;;;4994517;28;20353;-75
2022/08/16 10:41:04;;;;;;;5.28;4.15;;;;;;;;;;4990420;28;20627;-74
2022/08/16 10:43:34;;;;;;;4.35;3.95;;;;;;;;;;4993825;28;20201;-74
2022/08/16 10:46:04;;;;;;;4.40;4.00;;;;;;;;;;4994426;28;20697;-75
2022/08/16 10:48:54;;;;;;;4.95;4.45;;;;;;;;;;4994065;28;20227;-74
2022/08/16 10:51:23;;;;;;;5.00;4.35;;;;;;;;;;4993533;28;20205;-74
2022/08/16 10:54:11;;;;;;;4.30;3.90;;;;;;;;;;4994012;28;20236;-74
2022/08/16 10:56:57;;;;;;;5.93;3.80;;;;;;;;;;4994030;28;20209;-74
2022/08/16 10:59:26;;;;;;;6.28;3.80;;;;;;;;;;4994012;28;20236;-74
2022/08/16 11:02:15;;;;;;;4.70;4.25;;;;;;;;;;4994200;28;20217;-74
2022/08/16 11:05:06;;;;;;;3.90;3.58;;;;;;;;;;4992887;28;20202;-75
2022/08/16 11:07:36;;;;;;;4.35;3.95;;;;;;;;;;4993767;28;20313;-74
2022/08/16 11:10:23;;;;;;;6.95;4.40;;;;;;;;;;4993321;28;20237;-74
2022/08/16 11:13:13;;;;;;;4.38;3.97;;;;;;;;;;4993289;28;20201;-74
2022/08/16 11:16:02;;;;;;;4.78;4.07;;;;;;;;;;4989856;28;20696;-74
2022/08/16 11:18:50;;;;;;;4.57;4.10;;;;;;;;;;4993734;28;20229;-73
2022/08/16 11:21:35;;;;;;;5.45;4.05;;;;;;;;;;4993651;28;20221;-73
2022/08/16 11:24:24;;;;;;;4.45;4.05;;;;;;;;;;4993174;28;20260;-73
2022/08/16 11:27:11;;;;;;;3.90;3.60;;;;;;;;;;4993852;28;20185;-73
2022/08/16 11:29:52;;;;;;;4.88;3.67;;;;;;;;;;4993102;28;20349;-73
2022/08/16 11:32:23;;;;;;;5.53;3.92;;;;;;;;;;4993786;28;20297;-74
2022/08/16 11:35:01;;;;;;;5.40;3.40;;;;;;;;;;4982619;28;20206;-74
2022/08/16 11:37:45;;;;;;;5.57;4.32;;;;;;;;;;4974460;28;20292;-73
2022/08/16 11:40:37;;;;;;;4.95;3.67;;;;;;;;;;4985665;28;20256;-73
2022/08/16 11:43:07;;;;;;;4.38;4.03;;;;;;;;;;4993874;28;20241;-74
2022/08/16 11:45:37;;;;;;;4.25;3.47;;;;;;;;;;4993069;28;20666;-74
2022/08/16 11:48:09;;;;;;;4.38;3.80;;;;;;;;;;4993502;28;20606;-74
2022/08/16 11:50:40;;;;;;;4.13;3.80;;;;;;;;;;4994983;28;20232;-74
2022/08/16 11:53:10;;;;;;;4.63;3.92;;;;;;;;;;4997548;28;20248;-74
2022/08/16 11:55:42;;;;;;;4.30;3.90;;;;;;;;;;4996519;28;20244;-74
2022/08/16 11:58:12;;;;;;;4.10;3.70;;;;;;;;;;4997446;28;20209;-74
2022/08/16 12:00:43;;;;;;;4.10;3.80;;;;;;;;;;4997677;28;20283;-74
2022/08/16 12:03:20;;;;;;;4.70;3.97;;;;;;;;;;4997032;28;20220;-74
2022/08/16 12:06:06;;;;;;;4.40;3.92;;;;;;;;;;4996950;28;20216;-74
2022/08/16 12:08:39;;;;;;;3.95;3.60;;;;;;;;;;4994688;28;20221;-74
2022/08/16 12:11:09;;;;;;;4.10;3.55;;;;;;;;;;4997012;28;20268;-73
2022/08/16 12:13:39;;;;;;;4.25;3.78;;;;;;;;;;4994875;28;20197;-71
2022/08/16 12:16:08;;;;;;;4.25;3.85;;;;;;;;;;4997080;28;20670;-74
2022/08/16 12:18:36;;;;;;;4.75;4.20;;;;;;;;;;4996786;28;20217;-75
2022/08/16 12:21:10;;;;;;;4.47;4.07;;;;;;;;;;4984499;28;20221;-74
2022/08/16 12:23:40;;;;;;;4.60;4.03;;;;;;;;;;4995844;28;20224;-74
2022/08/16 12:26:23;;;;;;;5.15;4.10;;;;;;;;;;4996928;28;20201;-74
2022/08/16 12:28:52;;;;;;;4.00;3.70;;;;;;;;;;4996245;28;20708;-74
2022/08/16 12:31:24;;;;;;;4.65;3.55;;;;;;;;;;4996456;28;20193;-74
2022/08/16 12:33:53;;;;;;;4.50;4.10;;;;;;;;;;4994721;28;20216;-74
2022/08/16 12:36:25;;;;;;;5.25;4.18;;;;;;;;;;4993887;28;20602;-74
2022/08/16 12:38:59;;;;;;;4.10;3.80;;;;;;;;;;4646559;28;10000012;-74
2022/08/16 12:41:27;;;;;;;4.70;3.70;;;;;;;;;;4993787;28;20216;-74
2022/08/16 12:44:02;;;;;;;4.38;3.97;;;;;;;;;;4988567;28;20204;-72
2022/08/16 12:46:30;;;;;;;5.93;4.35;;;;;;;;;;4994156;28;20209;-75
2022/08/16 12:48:59;;;;;;;4.50;4.10;;;;;;;;;;4992508;28;20788;-74
2022/08/16 12:51:30;;;;;;;4.20;3.78;;;;;;;;;;4994065;28;20725;-73
2022/08/16 12:54:20;;;;;;;5.20;4.40;;;;;;;;;;4990118;28;20621;-74
2022/08/16 12:56:49;;;;;;;5.50;4.00;;;;;;;;;;4993635;28;20212;-74
2022/08/16 12:59:18;;;;;;;5.50;4.03;;;;;;;;;;4993256;28;20229;-74
2022/08/16 13:01:48;;;;;;;4.13;3.58;;;;;;;;;;4990998;28;20225;-74
2022/08/16 13:04:18;;;;;;;6.57;4.05;;;;;;;;;;4992911;28;20201;-74
2022/08/16 13:06:51;;;;;;;4.28;3.88;;;;;;;;;;4992369;28;20695;-74
2022/08/16 13:09:23;;;;;;;4.18;3.75;;;;;;;;;;4992942;28;20260;-73
2022/08/16 13:12:01;;;;;;;4.47;3.65;;;;;;;;;;4993948;28;20227;-73
2022/08/16 13:14:33;;;;;;;4.20;3.65;;;;;;;;;;4992415;28;20216;-74
2022/08/16 13:17:02;;;;;;;4.13;3.53;;;;;;;;;;4992758;28;20213;-74
2022/08/16 13:19:33;;;;;;;6.03;3.63;;;;;;;;;;4993569;28;20253;-74
2022/08/16 13:22:22;;;;;;;4.22;3.85;;;;;;;;;;4993368;28;20256;-74
2022/08/16 13:24:52;;;;;;;4.30;3.47;;;;;;;;;;4993077;28;20236;-76
2022/08/16 13:27:21;;;;;;;4.25;3.35;;;;;;;;;;4977138;28;20217;-74
2022/08/16 13:30:25;;;;;;;4.32;3.38;;;;;;;;;;4990447;28;20267;-75
2022/08/16 13:33:09;;;;;;;15.98;4.18;;;;;;;;;;4985739;28;20208;-74
2022/08/16 13:35:42;;;;;;;4.43;3.58;;;;;;;;;;4990808;28;20220;-74
2022/08/16 13:38:25;;;;;;;5.40;3.47;;;;;;;;;;4993016;28;20701;-75
2022/08/16 13:44:12;;;;;;;3.35;3.05;;;;;;;;;;4990478;28;20644;-75
2022/08/16 13:46:44;;;;;;;5.25;3.50;;;;;;;;;;4982603;28;20220;-74
2022/08/16 13:49:12;;;;;;;3.80;3.42;;;;;;;;;;4982080;28;20279;-75
2022/08/16 13:51:41;;;;;;;3.67;3.38;;;;;;;;;;4989050;28;20209;-74
2022/08/16 13:54:10;;;;;;;6.70;3.38;;;;;;;;;;4991451;28;20252;-74
2022/08/16 13:56:40;;;;;;;4.15;3.58;;;;;;;;;;4990498;28;20209;-74
2022/08/16 13:59:12;;;;;;;3.95;3.40;;;;;;;;;;4991503;28;20233;-74
2022/08/16 14:01:50;;;;;;;4.85;3.15;;;;;;;;;;4992333;28;20669;-74
2022/08/16 14:04:23;;;;;;;5.88;3.88;;;;;;;;;;4992561;28;20193;-74
2022/08/16 14:06:56;;;;;;;3.80;3.50;;;;;;;;;;4995432;28;20236;-74
2022/08/16 14:09:26;;;;;;;3.72;3.38;;;;;;;;;;4993283;28;20232;-74
2022/08/16 14:11:56;;;;;;;3.97;3.65;;;;;;;;;;4991436;28;20272;-74
2022/08/16 14:14:25;;;;;;;4.60;3.53;;;;;;;;;;4988794;28;20224;-75
2022/08/16 14:16:57;;;;;;;3.63;3.33;;;;;;;;;;4991122;28;20205;-74
2022/08/16 14:19:26;;;;;;;4.53;3.28;;;;;;;;;;4990583;28;20225;-74
2022/08/16 14:21:57;;;;;;;3.72;3.30;;;;;;;;;;4990584;28;20259;-74
2022/08/16 14:24:42;;;;;;;3.88;3.58;;;;;;;;;;4992525;28;20208;-75
2022/08/16 14:27:15;;;;;;;4.32;3.60;;;;;;;;;;4988756;28;20295;-74
2022/08/16 14:29:48;;;;;;;5.75;3.80;;;;;;;;;;4987784;28;20229;-74
2022/08/16 14:32:24;;;;;;;4.90;3.88;;;;;;;;;;4990929;28;20281;-73
2022/08/16 14:35:06;;;;;;;4.40;3.60;;;;;;;;;;4991192;28;20267;-75
2022/08/16 14:37:34;;;;;;;4.82;3.60;;;;;;;;;;4992795;28;20293;-75
2022/08/16 14:40:04;;;;;;;5.03;3.42;;;;;;;;;;4995014;28;20229;-76
2022/08/16 14:42:33;;;;;;;4.05;3.42;;;;;;;;;;4994583;28;20248;-76
2022/08/16 14:45:04;;;;;;;5.20;3.60;;;;;;;;;;4998117;28;20193;-76
2022/08/16 14:47:36;;;;;;;4.65;3.83;;;;;;;;;;5000558;28;20267;-76
2022/08/16 14:50:04;;;;;;;4.93;3.83;;;;;;;;;;4989562;28;20217;-76
2022/08/16 14:52:35;;;;;;;5.38;4.03;;;;;;;;;;4647548;28;10000073;-76
2022/08/16 14:55:24;;;;;;;4.15;3.78;;;;;;;;;;4993640;28;20714;-75
2022/08/16 14:57:53;;;;;;;4.30;3.60;;;;;;;;;;5003048;28;20211;-76
2022/08/16 15:00:22;;;;;;;4.28;3.88;;;;;;;;;;4994464;28;20302;-75
2022/08/16 15:03:03;;;;;;;4.25;3.83;;;;;;;;;;4997638;28;20232;-76
2022/08/16 15:05:33;;;;;;;4.78;4.18;;;;;;;;;;4986451;28;20204;-76
2022/08/16 15:08:02;;;;;;;4.57;4.18;;;;;;;;;;4994222;28;20253;-76
2022/08/16 15:10:31;;;;;;;4.07;3.53;;;;;;;;;;4977434;28;20205;-76
2022/08/16 15:13:00;;;;;;;4.15;3.75;;;;;;;;;;4978832;28;20198;-76
2022/08/16 15:15:29;;;;;;;5.10;4.22;;;;;;;;;;4993082;28;20208;-76
2022/08/16 15:17:59;;;;;;;6.45;4.10;;;;;;;;;;4994996;28;20568;-77
2022/08/16 15:20:32;;;;;;;4.43;3.97;;;;;;;;;;4989666;28;20659;-76
2022/08/16 15:23:02;;;;;;;4.57;4.13;;;;;;;;;;4993390;28;20702;-77
2022/08/16 15:25:32;;;;;;;4.38;3.92;;;;;;;;;;4994345;28;20196;-76